HOURLY OBSERVATIONS


Time
(EST)
Temperature
°F
Dew Point
°F
Humidity
%
Wind
mph
Pressure
mb
Precip.
Hour
in
Precip.
Day
in
6 Hr
Max Temp
°F
6 Hr
Min Temp
°F
23 13:00 36.9 26.2 65 SSW 3 G 8 1019.6 0.00 36.9 26.9
23 12:00 35.0 25.9 69 SW 5 G 11 1020.7 0.00
23 11:00 32.3 24.6 73 WSW 1 G 5 1021.7 0.00
23 10:00 30.9 23.9 75 WSW 2 G 9 1022.5 0.00
23 09:00 28.5 22.5 78 SW 2 G 5 1022.6 0.00
23 08:00 27.4 21.7 79 SW 2 G 7 1022.2 0.00
23 07:00 26.9 21.6 80 SSW 1 G 4 1022.5 0.00 27.7 25.3
23 06:00 27.1 21.5 79 SW 0 G 3 1023.1 0.00
23 05:00 26.2 21.2 81 Calm 1023.6 0.00
23 04:00 25.3 20.6 82 Calm 1023.8 0.00
23 03:00 25.7 20.4 80 Calm 1024.1 0.00
23 02:00 26.7 20.5 77 SW 0 G 1 1024.1 0.00
23 01:00 27.7 21.1 76 SW 0 G 1 1024.5 0.00 30.5 27.7
23 00:00 28.2 21.0 74 SW 0 G 1 1025.0 0.00
22 23:00 29.2 21.0 71 SW 1 G 6 1025.1 0.00
22 22:00 29.9 21.3 70 WSW 0 G 4 1025.0 0.00
22 21:00 30.1 21.2 69 SW 0 G 2 1025.1 0.00
22 20:00 30.4 21.5 69 W 0 G 2 1025.8 0.00
22 19:00 30.5 21.2 68 WSW 1 G 4 1026.5 0.00 32.9 30.5
22 18:00 30.9 21.9 69 NW 1 G 5 1026.2 0.00
22 17:00 31.4 21.4 66 WNW 1 G 4 1025.7 0.00
22 16:00 32.3 22.9 68 NNE 2 G 5 1025.3 0.00
22 15:00 32.8 23.4 68 WNW 2 G 6 1024.6 0.00
22 14:00 32.7 24.3 71 NW 2 G 5 1024.3 0.00
22 13:00 32.7 25.7 75 W 3 G 6 1024.6 0.00 32.8 32.3
22 12:00 32.4 26.3 78 W 2 G 6 1024.5 0.00
22 11:00 32.6 27.4 81 NNE 2 G 4 1024.4 0.00
22 10:00 32.6 27.4 81 NW 0 G 6 1024.0 0.00
22 09:00 32.6 28.6 85 NW 1 G 5 1023.1 0.00
22 08:00 32.5 29.3 88 ENE 0 G 4 1022.6 0.00
22 07:00 32.8 30.5 91 NW 3 G 5 1021.7 0.00 35.9 32.8
22 06:00 33.8 31.5 91 WNW 1 G 3 1020.8 0.00
22 05:00 34.4 32.3 92 NNW 0 G 7 1019.6 0.00
22 04:00 35.0 33.2 93 NW 1 G 6 1018.5 0.00
22 03:00 35.1 33.5 94 NW 1 G 6 1017.8 0.00
22 02:00 34.8 33.0 93 W 0 G 4 1017.2 0.00
22 01:00 35.9 33.8 92 NW 4 G 8 1016.8 0.00 48.6 35.9
22 00:00 37.9 35.2 90 WNW 2 G 5 1016.2 0.01 0.01
21 23:00 42.8 38.0 83 WNW 4 G 6 1015.5 0.00
21 22:00 45.8 37.3 72 WNW 2 G 5 1014.6 0.00
21 21:00 47.7 37.3 67 NW 3 G 9 1014.0 0.00
21 20:00 47.7 34.9 61 W 1 G 5 1013.4 0.00
21 19:00 48.6 34.5 58 SW 5 G 10 1013.1 0.00 53.9 48.5
21 18:00 49.4 34.4 56 SW 2 G 7 1013.0 0.00
21 17:00 50.7 34.2 53 W 5 G 11 1013.2 0.00
21 16:00 52.1 33.5 49 WSW 4 G 15 1012.2 0.00
21 15:00 53.9 33.1 45 SSW 11 G 22 1011.5 0.00
21 14:00 52.8 33.7 48 SSW 9 G 17 1011.3 0.00
21 13:00 50.4 33.0 51 SSW 10 G 23 1011.5 0.00 50.4 37.8
21 12:00 46.7 31.8 56 SSW 7 G 21 1011.8 0.00
21 11:00 46.1 31.3 56 SW 12 G 26 1012.6 0.00
21 10:00 43.9 29.7 57 SW 6 G 25 1012.7 0.00
21 09:00 40.7 28.3 61 SW 6 G 17 1012.8 0.00
21 08:00 38.9 27.4 63 SW 10 G 20 1012.6 0.00
21 07:00 37.8 26.7 64 SSW 5 G 14 1013.0 0.00 38.7 37.6
21 06:00 37.8 26.7 64 SSW 5 G 11 1013.4 0.00
21 05:00 37.9 26.4 63 SW 4 G 12 1013.2 0.00
21 04:00 37.7 26.2 63 SW 4 G 14 1013.9 0.00
21 03:00 38.1 26.6 63 SW 4 G 13 1014.3 0.00
21 02:00 38.6 26.3 61 SSW 6 G 13 1014.9 0.00
21 01:00 38.4 26.5 62 SSW 4 G 17 1014.6 0.00 39.3 38.2
21 00:00 38.3 26.8 63 SSW 5 G 14 1015.4 0.00
20 23:00 38.6 27.1 63 SSW 6 G 16 1015.9 0.00
20 22:00 38.8 27.3 63 SSW 8 G 15 1016.7 0.00
20 21:00 38.6 27.1 63 SSW 7 G 14 1017.0 0.00
20 20:00 38.9 27.8 64 SSW 6 G 17 1017.4 0.00
20 19:00 39.3 27.8 63 SSW 3 G 13 1017.6 0.00 43.7 39.3
20 18:00 39.9 27.9 62 SSW 7 G 15 1017.9 0.00
20 17:00 41.6 28.7 60 SSW 8 G 17 1018.0 0.00
20 16:00 42.8 28.6 57 SW 5 G 22 1018.5 0.00
20 15:00 43.6 29.4 57 WSW 7 G 17 1018.4 0.00
20 14:00 42.7 29.4 59 SW 6 G 12 1019.0 0.00